createdAt,value
2023-01-04T00:01:30.691Z,4.24
2023-01-04T00:03:57.460Z,4.26
2023-01-04T00:06:24.159Z,4.32
2023-01-04T00:08:50.719Z,4.34
2023-01-04T00:11:20.959Z,4.31
2023-01-04T00:13:49.530Z,4.28
2023-01-04T00:16:21.624Z,4.39
2023-01-04T00:18:48.952Z,4.38
2023-01-04T00:21:24.447Z,4.25
2023-01-04T00:23:53.885Z,4.35
2023-01-04T00:26:29.393Z,4.38
2023-01-04T00:29:01.491Z,4.25
2023-01-04T00:31:29.146Z,4.27
2023-01-04T00:33:57.190Z,4.32
2023-01-04T00:36:24.494Z,4.35
2023-01-04T00:39:10.533Z,4.26
2023-01-04T00:41:59.294Z,4.28
2023-01-04T00:44:27.490Z,4.26
2023-01-04T00:46:54.123Z,4.18
2023-01-04T00:49:20.736Z,4.17
2023-01-04T00:51:47.298Z,4.21
2023-01-04T00:54:15.490Z,4.23
2023-01-04T00:56:42.640Z,4.20
2023-01-04T00:59:12.499Z,4.20
2023-01-04T01:01:40.006Z,4.18
2023-01-04T01:04:07.036Z,4.18
2023-01-04T01:06:34.950Z,4.21
2023-01-04T01:09:02.593Z,4.22
2023-01-04T01:11:30.116Z,4.22
2023-01-04T01:13:58.132Z,4.22
2023-01-04T01:16:53.925Z,4.22
2023-01-04T01:19:12.060Z,4.22
2023-01-04T01:21:38.855Z,4.22
2023-01-04T01:24:06.479Z,4.19
2023-01-04T01:26:33.410Z,4.12
2023-01-04T01:29:00.201Z,4.20
2023-01-04T01:31:28.739Z,4.17
2023-01-04T01:33:56.699Z,4.10
2023-01-04T01:36:24.784Z,4.10
2023-01-04T01:38:51.440Z,4.06
2023-01-04T01:41:22.548Z,4.09
2023-01-04T01:44:07.109Z,4.10
2023-01-04T01:46:44.179Z,4.15
2023-01-04T01:49:13.513Z,4.10
2023-01-04T01:51:41.981Z,4.10
2023-01-04T01:54:16.714Z,4.12
2023-01-04T01:56:46.036Z,4.10
2023-01-04T01:59:15.406Z,4.09
2023-01-04T02:01:42.206Z,4.09
2023-01-04T02:04:09.983Z,4.08
2023-01-04T02:06:41.674Z,4.04
2023-01-04T02:09:09.402Z,4.13
2023-01-04T02:11:35.937Z,4.17
2023-01-04T02:14:22.489Z,4.15
2023-01-04T02:16:49.012Z,4.18
2023-01-04T02:19:39.461Z,4.23
2023-01-04T02:22:24.778Z,4.23
2023-01-04T02:25:18.673Z,4.17
2023-01-04T02:27:45.090Z,4.18
2023-01-04T02:30:25.945Z,4.21
2023-01-04T02:33:20.523Z,4.23
2023-01-04T02:36:08.930Z,4.26
2023-01-04T02:38:57.527Z,4.29
2023-01-04T02:41:50.895Z,4.31
2023-01-04T02:44:43.578Z,4.32
2023-01-04T02:47:15.150Z,4.31
2023-01-04T02:50:04.591Z,4.38
2023-01-04T02:52:32.897Z,4.34
2023-01-04T02:55:01.132Z,4.39
2023-01-04T02:57:58.429Z,4.39
2023-01-04T03:01:12.885Z,4.38
2023-01-04T03:04:43.378Z,4.37
2023-01-04T03:07:22.010Z,4.41
2023-01-04T03:09:53.007Z,4.39
2023-01-04T03:12:33.873Z,4.45
2023-01-04T03:15:09.092Z,4.45
2023-01-04T03:17:50.933Z,4.44
2023-01-04T03:20:20.655Z,4.47
2023-01-04T03:23:14.563Z,4.49
2023-01-04T03:26:05.484Z,4.52
2023-01-04T03:28:54.460Z,4.56
2023-01-04T03:31:54.343Z,4.52
2023-01-04T03:34:40.067Z,4.56
2023-01-04T03:37:17.175Z,4.57
2023-01-04T03:40:21.116Z,4.59
2023-01-04T03:43:31.933Z,4.61
2023-01-04T03:46:45.438Z,4.65
2023-01-04T03:49:22.015Z,4.63
2023-01-04T03:51:52.098Z,4.66
2023-01-04T03:54:29.438Z,4.68
2023-01-04T03:56:56.861Z,4.68
2023-01-04T03:59:23.990Z,4.67
2023-01-04T04:01:51.106Z,4.67
2023-01-04T04:04:36.468Z,4.67
2023-01-04T04:07:21.918Z,4.71
2023-01-04T04:09:48.640Z,4.70
2023-01-04T04:12:15.192Z,4.73
2023-01-04T04:14:41.783Z,4.77
2023-01-04T04:17:08.352Z,4.80
2023-01-04T04:19:34.891Z,4.79
2023-01-04T04:22:01.464Z,4.81
2023-01-04T04:24:28.188Z,4.82
2023-01-04T04:26:55.845Z,4.82
2023-01-04T04:29:24.001Z,4.81
2023-01-04T04:31:50.955Z,4.81
2023-01-04T04:34:17.696Z,4.81
2023-01-04T04:36:44.434Z,4.78
2023-01-04T04:39:11.980Z,4.79
2023-01-04T04:41:39.490Z,4.78
2023-01-04T04:44:07.145Z,4.78
2023-01-04T04:46:36.918Z,4.73
2023-01-04T04:49:05.184Z,4.76
2023-01-04T04:51:31.953Z,4.78
2023-01-04T04:53:58.606Z,4.76
2023-01-04T04:56:25.397Z,4.77
2023-01-04T04:58:51.997Z,4.77
2023-01-04T05:01:19.526Z,4.77
2023-01-04T05:03:46.591Z,4.76
2023-01-04T05:06:13.775Z,4.76
2023-01-04T05:08:40.384Z,4.77
2023-01-04T05:11:08.376Z,4.76
2023-01-04T05:13:35.745Z,4.76
2023-01-04T05:16:03.831Z,4.77
2023-01-04T05:18:30.521Z,4.77
2023-01-04T05:20:57.190Z,4.77
2023-01-04T05:23:23.812Z,4.77
2023-01-04T05:26:00.016Z,4.76
2023-01-04T05:28:27.147Z,4.73
2023-01-04T05:30:55.739Z,4.77
2023-01-04T05:33:28.478Z,4.75
2023-01-04T05:35:56.573Z,4.76
2023-01-04T05:38:23.195Z,4.77
2023-01-04T05:40:50.412Z,4.78
2023-01-04T05:43:18.421Z,4.78
2023-01-04T05:45:52.081Z,4.80
2023-01-04T05:48:20.301Z,4.80
2023-01-04T05:50:47.226Z,4.74
2023-01-04T05:53:17.402Z,4.77
2023-01-04T05:55:45.153Z,4.76
2023-01-04T05:58:12.430Z,4.74
2023-01-04T06:00:39.169Z,4.75
2023-01-04T06:03:05.954Z,4.73
2023-01-04T06:05:32.643Z,4.75
2023-01-04T06:07:59.272Z,4.74
2023-01-04T06:10:25.840Z,4.79
2023-01-04T06:12:52.471Z,4.79
2023-01-04T06:15:19.559Z,4.78
2023-01-04T06:17:46.186Z,4.84
2023-01-04T06:20:13.000Z,4.84
2023-01-04T06:22:40.791Z,4.81
2023-01-04T06:25:09.344Z,4.88
2023-01-04T06:27:36.104Z,4.85
2023-01-04T06:30:02.787Z,4.85
2023-01-04T06:32:29.379Z,4.80
2023-01-04T06:34:55.983Z,4.83
2023-01-04T06:37:23.021Z,4.86
2023-01-04T06:39:49.617Z,4.79
2023-01-04T06:42:54.554Z,4.79
2023-01-04T06:45:21.162Z,4.82
2023-01-04T06:47:48.150Z,4.81
2023-01-04T06:50:14.868Z,4.84
2023-01-04T06:52:41.577Z,4.81
2023-01-04T06:55:09.551Z,4.83
2023-01-04T06:57:36.462Z,4.87
2023-01-04T07:00:04.971Z,4.92
2023-01-04T07:02:31.591Z,4.89
2023-01-04T07:04:58.565Z,4.90
2023-01-04T07:07:25.376Z,4.91
2023-01-04T07:09:52.120Z,4.94
2023-01-04T07:12:19.099Z,4.94
2023-01-04T07:14:45.810Z,4.94
2023-01-04T07:17:12.534Z,4.95
2023-01-04T07:19:39.405Z,4.96
2023-01-04T07:22:06.126Z,4.95
2023-01-04T07:24:32.778Z,4.98
2023-01-04T07:27:00.060Z,4.98
2023-01-04T07:29:27.174Z,5.02
2023-01-04T07:31:54.008Z,5.04
2023-01-04T07:34:23.047Z,5.09
2023-01-04T07:36:49.967Z,5.07
2023-01-04T07:39:18.161Z,5.08
2023-01-04T07:41:45.355Z,5.13
2023-01-04T07:44:12.659Z,5.15
2023-01-04T07:46:40.088Z,5.16
2023-01-04T07:49:11.687Z,5.17
2023-01-04T07:51:43.075Z,5.21
2023-01-04T07:54:12.344Z,5.20
2023-01-04T07:56:39.453Z,5.23
2023-01-04T07:59:08.157Z,5.23
2023-01-04T08:01:38.099Z,5.20
2023-01-04T08:04:06.581Z,5.25
2023-01-04T08:06:34.155Z,5.24
2023-01-04T08:09:01.339Z,5.27
2023-01-04T08:11:28.349Z,5.31
2023-01-04T08:13:55.196Z,5.31
2023-01-04T08:16:29.001Z,5.36
2023-01-04T08:18:56.741Z,5.38
2023-01-04T08:21:27.165Z,5.40
2023-01-04T08:23:54.625Z,5.41
2023-01-04T08:26:21.884Z,5.47
2023-01-04T08:28:50.963Z,5.48
2023-01-04T08:31:24.773Z,5.51
2023-01-04T08:33:52.454Z,5.51
2023-01-04T08:36:27.395Z,5.54
2023-01-04T08:39:15.412Z,5.55
2023-01-04T08:42:04.180Z,5.60
2023-01-04T08:44:31.859Z,5.59
2023-01-04T08:46:58.987Z,5.59
2023-01-04T08:49:25.635Z,5.61
2023-01-04T08:51:52.219Z,5.62
2023-01-04T08:54:18.929Z,5.63
2023-01-04T08:56:45.479Z,5.64
2023-01-04T08:59:13.470Z,5.62
2023-01-04T09:01:41.038Z,5.61
2023-01-04T09:04:08.131Z,5.69
2023-01-04T09:06:36.356Z,5.75
2023-01-04T09:09:03.428Z,5.75
2023-01-04T09:11:30.216Z,5.78
2023-01-04T09:14:06.793Z,5.80
2023-01-04T09:16:35.727Z,5.81
2023-01-04T09:19:02.512Z,5.85
2023-01-04T09:21:29.748Z,5.86
2023-01-04T09:23:59.897Z,5.88
2023-01-04T09:26:26.801Z,5.90
2023-01-04T09:28:55.440Z,5.91
2023-01-04T09:31:25.800Z,5.93
2023-01-04T09:36:40.455Z,5.95
2023-01-04T09:39:07.355Z,5.96
2023-01-04T09:41:40.090Z,6.00
2023-01-04T09:44:09.689Z,5.98
2023-01-04T09:46:43.789Z,5.99
2023-01-04T09:49:29.248Z,6.00
2023-01-04T09:52:11.099Z,6.03
2023-01-04T09:54:55.118Z,6.04
2023-01-04T09:57:31.076Z,6.04
2023-01-04T10:00:21.065Z,6.04
2023-01-04T10:03:35.569Z,6.04
2023-01-04T10:06:03.317Z,6.04
2023-01-04T10:08:33.224Z,6.05
2023-01-04T10:11:26.797Z,6.07
2023-01-04T10:14:13.037Z,6.09
2023-01-04T10:17:13.003Z,6.11
2023-01-04T10:22:58.649Z,6.18
2023-01-04T10:25:51.110Z,6.18
2023-01-04T10:28:24.070Z,6.19
2023-01-04T10:31:39.624Z,6.23
2023-01-04T10:34:23.069Z,6.21
2023-01-04T10:36:54.354Z,6.24
2023-01-04T10:39:30.250Z,6.28
2023-01-04T10:42:39.205Z,6.35
2023-01-04T10:45:17.975Z,6.36
2023-01-04T10:47:44.400Z,6.38
2023-01-04T10:50:34.398Z,6.39
2023-01-04T10:53:07.323Z,6.42
2023-01-04T10:56:25.507Z,6.45
2023-01-04T10:58:41.087Z,6.47
2023-01-04T11:01:17.473Z,6.49
2023-01-04T11:03:51.980Z,6.53
2023-01-04T11:06:33.965Z,6.55
2023-01-04T11:09:24.562Z,6.61
2023-01-04T11:11:53.071Z,6.62
2023-01-04T11:14:19.606Z,6.64
2023-01-04T11:16:51.561Z,6.65
2023-01-04T11:19:18.560Z,6.69
2023-01-04T11:22:01.112Z,6.73
2023-01-04T11:24:34.008Z,6.75
2023-01-04T11:27:14.815Z,6.78
2023-01-04T11:30:00.659Z,6.81
2023-01-04T11:32:46.174Z,6.89
2023-01-04T11:35:12.791Z,6.91
2023-01-04T11:37:41.744Z,6.92
2023-01-04T11:40:17.565Z,6.92
2023-01-04T11:42:46.165Z,6.95
2023-01-04T11:45:20.062Z,6.98
2023-01-04T11:47:52.703Z,6.96
2023-01-04T11:50:47.555Z,6.95
2023-01-04T11:53:40.506Z,6.94
2023-01-04T11:56:23.229Z,6.94
2023-01-04T11:59:05.228Z,6.95
2023-01-04T12:01:34.770Z,6.94
2023-01-04T12:04:02.095Z,6.94
2023-01-04T12:06:49.987Z,6.96
2023-01-04T12:09:18.846Z,6.95
2023-01-04T12:11:56.028Z,6.99
2023-01-04T12:14:26.480Z,7.00
2023-01-04T12:17:19.817Z,7.02
2023-01-04T12:19:47.418Z,7.00
2023-01-04T12:22:38.417Z,7.00
2023-01-04T12:25:20.229Z,7.00
2023-01-04T12:27:48.421Z,7.01
2023-01-04T12:30:36.335Z,7.07
2023-01-04T12:33:30.956Z,7.06
2023-01-04T12:36:06.416Z,7.05
2023-01-04T12:38:54.959Z,7.07
2023-01-04T12:42:00.627Z,7.09
2023-01-04T12:44:36.322Z,7.13
2023-01-04T12:47:48.063Z,7.14
2023-01-04T12:50:20.649Z,7.10
2023-01-04T12:53:19.490Z,7.10
2023-01-04T12:55:44.191Z,7.11
2023-01-04T12:59:23.785Z,7.11
2023-01-04T13:01:28.159Z,7.14
2023-01-04T13:04:29.230Z,7.17
2023-01-04T13:07:07.270Z,7.19
2023-01-04T13:09:33.853Z,7.19
2023-01-04T13:12:21.593Z,7.22
2023-01-04T13:14:51.571Z,7.20
2023-01-04T13:17:24.307Z,7.19
2023-01-04T13:19:51.104Z,7.19
2023-01-04T13:22:30.783Z,7.21
2023-01-04T13:25:00.419Z,7.21
2023-01-04T13:27:27.957Z,7.21
2023-01-04T13:29:55.238Z,7.20
2023-01-04T13:32:27.130Z,7.18
2023-01-04T13:35:15.178Z,7.21
2023-01-04T13:37:47.858Z,7.20
2023-01-04T13:40:28.022Z,7.22
2023-01-04T13:43:26.090Z,7.23
2023-01-04T13:46:19.244Z,7.24
2023-01-04T13:48:49.217Z,7.23
2023-01-04T13:51:30.607Z,7.25
2023-01-04T13:54:05.374Z,7.26
2023-01-04T13:56:35.145Z,7.29
2023-01-04T13:59:01.878Z,7.31
2023-01-04T14:01:31.933Z,7.34
2023-01-04T14:04:04.847Z,7.34
2023-01-04T14:06:41.680Z,7.32
2023-01-04T14:09:11.070Z,7.36
2023-01-04T14:14:53.716Z,7.37
2023-01-04T14:17:26.274Z,7.38
2023-01-04T14:20:19.287Z,7.36
2023-01-04T14:22:45.782Z,7.35
2023-01-04T14:25:44.899Z,7.37
2023-01-04T14:28:22.802Z,7.38
2023-01-04T14:31:13.678Z,7.39
2023-01-04T14:33:49.925Z,7.42
2023-01-04T14:36:30.148Z,7.43
2023-01-04T14:39:11.160Z,7.45
2023-01-04T14:41:59.769Z,7.46
2023-01-04T14:44:30.694Z,7.43
2023-01-04T14:47:06.125Z,7.44
2023-01-04T14:49:32.970Z,7.46
2023-01-04T14:52:01.787Z,7.48
2023-01-04T14:54:30.387Z,7.49
2023-01-04T14:56:58.794Z,7.50
2023-01-04T14:59:26.567Z,7.51
2023-01-04T15:01:54.881Z,7.50
2023-01-04T15:04:22.440Z,7.51
2023-01-04T15:06:58.667Z,7.49
2023-01-04T15:09:25.742Z,7.54
2023-01-04T15:11:52.367Z,7.59
2023-01-04T15:14:19.423Z,7.52
2023-01-04T15:16:46.629Z,7.56
2023-01-04T15:19:13.651Z,7.56
2023-01-04T15:21:41.471Z,7.56
2023-01-04T15:24:09.143Z,7.61
2023-01-04T15:26:35.747Z,7.57
2023-01-04T15:29:03.632Z,7.59
2023-01-04T15:31:35.107Z,7.63
2023-01-04T15:34:05.253Z,7.64
2023-01-04T15:36:31.808Z,7.64
2023-01-04T15:38:58.630Z,7.65
2023-01-04T15:41:44.010Z,7.65
2023-01-04T15:44:11.347Z,7.63
2023-01-04T15:46:38.339Z,7.64
2023-01-04T15:49:05.102Z,7.66
2023-01-04T15:51:31.658Z,7.66
2023-01-04T15:53:58.283Z,7.67
2023-01-04T15:56:26.779Z,7.69
2023-01-04T15:58:55.110Z,7.67
2023-01-04T16:01:22.321Z,7.66
2023-01-04T16:03:53.539Z,7.67
2023-01-04T16:06:21.215Z,7.66
2023-01-04T16:08:52.017Z,7.66
2023-01-04T16:11:21.008Z,7.65
2023-01-04T16:13:50.155Z,7.64
2023-01-04T16:16:17.771Z,7.65
2023-01-04T16:18:47.303Z,7.63
2023-01-04T16:21:15.938Z,7.67
2023-01-04T16:23:42.554Z,7.63
2023-01-04T16:26:14.509Z,7.62
2023-01-04T16:28:41.593Z,7.64
2023-01-04T16:31:09.540Z,7.64
2023-01-04T16:33:36.457Z,7.66
2023-01-04T16:36:06.117Z,7.66
2023-01-04T16:38:36.906Z,7.66
2023-01-04T16:41:05.391Z,7.66
2023-01-04T16:43:32.585Z,7.66
2023-01-04T16:46:20.529Z,7.68
2023-01-04T16:48:50.948Z,7.66
2023-01-04T16:51:18.028Z,7.72
2023-01-04T16:53:44.912Z,7.71
2023-01-04T16:56:14.340Z,7.69
2023-01-04T16:58:44.909Z,7.67
2023-01-04T17:01:17.522Z,7.69
2023-01-04T17:03:45.958Z,7.69
2023-01-04T17:06:23.412Z,7.68
2023-01-04T17:08:52.720Z,7.67
2023-01-04T17:12:11.511Z,7.72
2023-01-04T17:14:14.872Z,7.72
2023-01-04T17:16:42.214Z,7.70
2023-01-04T17:19:09.693Z,7.74
2023-01-04T17:21:36.389Z,7.72
2023-01-04T17:24:03.731Z,7.73
2023-01-04T17:26:32.017Z,7.74
2023-01-04T17:29:00.238Z,7.74
2023-01-04T17:31:33.624Z,7.73
2023-01-04T17:34:01.069Z,7.72
2023-01-04T17:36:27.717Z,7.74
2023-01-04T17:38:54.575Z,7.75
2023-01-04T17:41:23.709Z,7.76
2023-01-04T17:43:53.276Z,7.79
2023-01-04T17:46:23.556Z,7.79
2023-01-04T17:49:17.817Z,7.81
2023-01-04T17:51:40.053Z,7.84
2023-01-04T17:54:08.491Z,7.82
2023-01-04T17:56:37.138Z,7.85
2023-01-04T17:59:06.869Z,7.85
2023-01-04T18:01:34.830Z,7.87
2023-01-04T18:04:03.470Z,7.89
2023-01-04T18:06:33.174Z,7.88
2023-01-04T18:09:00.703Z,7.91
2023-01-04T18:11:27.419Z,7.94
2023-01-04T18:13:54.286Z,7.95
2023-01-04T18:16:27.334Z,7.94
2023-01-04T18:18:59.563Z,8.00
2023-01-04T18:21:31.205Z,7.98
2023-01-04T18:27:19.974Z,8.03
2023-01-04T18:29:33.260Z,8.03
2023-01-04T18:31:59.952Z,8.05
2023-01-04T18:34:27.010Z,8.05
2023-01-04T18:36:54.380Z,8.06
2023-01-04T18:39:21.558Z,8.05
2023-01-04T18:41:48.096Z,8.13
2023-01-04T18:47:02.518Z,8.14
2023-01-04T18:49:29.354Z,8.17
2023-01-04T18:51:56.025Z,8.18
2023-01-04T18:54:22.759Z,8.21
2023-01-04T18:56:49.338Z,8.21
2023-01-04T18:59:19.243Z,8.25
2023-01-04T19:01:46.259Z,8.26
2023-01-04T19:04:13.737Z,8.26
2023-01-04T19:06:40.965Z,8.27
2023-01-04T19:09:08.503Z,8.30
2023-01-04T19:11:35.892Z,8.30
2023-01-04T19:14:03.606Z,8.30
2023-01-04T19:16:31.715Z,8.33
2023-01-04T19:19:00.263Z,8.34
2023-01-04T19:21:27.550Z,8.34
2023-01-04T19:23:54.340Z,8.38
2023-01-04T19:26:21.891Z,8.39
2023-01-04T19:28:48.709Z,8.41
2023-01-04T19:31:17.232Z,8.44
2023-01-04T19:33:44.392Z,8.46
2023-01-04T19:36:13.218Z,8.50
2023-01-04T19:38:40.201Z,8.50
2023-01-04T19:41:08.232Z,8.51
2023-01-04T19:43:35.815Z,8.57
2023-01-04T19:46:07.798Z,8.62
2023-01-04T19:48:34.567Z,8.61
2023-01-04T19:51:13.283Z,8.65
2023-01-04T19:53:40.556Z,8.65
2023-01-04T19:56:08.538Z,8.72
2023-01-04T19:58:37.379Z,8.73
2023-01-04T20:01:05.017Z,8.77
2023-01-04T20:03:31.692Z,8.74
2023-01-04T20:06:06.072Z,8.78
2023-01-04T20:08:33.329Z,8.88
2023-01-04T20:11:01.390Z,8.85
2023-01-04T20:13:29.503Z,8.86
2023-01-04T20:15:56.205Z,8.86
2023-01-04T20:18:26.309Z,8.85
2023-01-04T20:20:53.562Z,8.85
2023-01-04T20:23:23.941Z,8.84
2023-01-04T20:25:53.022Z,8.84
2023-01-04T20:28:24.470Z,8.83
2023-01-04T20:31:07.656Z,8.83
2023-01-04T20:33:34.373Z,8.83
2023-01-04T20:36:06.504Z,8.83
2023-01-04T20:38:39.937Z,8.84
2023-01-04T20:41:07.539Z,8.82
2023-01-04T20:43:34.204Z,8.84
2023-01-04T20:46:03.375Z,8.87
2023-01-04T20:48:30.019Z,8.84
2023-01-04T20:50:57.179Z,8.86
2023-01-04T20:53:23.881Z,8.85
2023-01-04T20:55:50.516Z,8.86
2023-01-04T20:58:17.633Z,8.87
2023-01-04T21:00:46.716Z,8.85
2023-01-04T21:03:13.749Z,8.83
2023-01-04T21:05:42.966Z,8.82
2023-01-04T21:08:10.465Z,8.83
2023-01-04T21:10:40.837Z,8.85
2023-01-04T21:13:07.554Z,8.84
2023-01-04T21:15:36.301Z,8.87
2023-01-04T21:18:06.805Z,8.86
2023-01-04T21:20:33.624Z,8.85
2023-01-04T21:23:00.257Z,8.86
2023-01-04T21:25:26.882Z,8.87
2023-01-04T21:27:53.509Z,8.88
2023-01-04T21:30:20.624Z,8.90
2023-01-04T21:32:47.204Z,8.88
2023-01-04T21:35:13.757Z,8.90
2023-01-04T21:37:40.622Z,8.92
2023-01-04T21:40:07.714Z,8.93
2023-01-04T21:42:34.277Z,8.98
2023-01-04T21:45:00.960Z,8.98
2023-01-04T21:47:31.051Z,8.99
2023-01-04T21:49:57.633Z,9.02
2023-01-04T21:52:24.229Z,8.99
2023-01-04T21:54:50.833Z,9.00
2023-01-04T21:57:17.451Z,9.01
2023-01-04T21:59:44.336Z,9.01
2023-01-04T22:02:19.423Z,9.02
2023-01-04T22:04:46.956Z,9.04
2023-01-04T22:07:14.221Z,9.02
2023-01-04T22:09:40.771Z,9.04
2023-01-04T22:12:07.687Z,9.06
2023-01-04T22:14:34.779Z,9.07
2023-01-04T22:17:01.498Z,9.07
2023-01-04T22:19:28.578Z,9.07
2023-01-04T22:21:55.194Z,9.10
2023-01-04T22:24:21.863Z,9.09
2023-01-04T22:26:50.643Z,9.11
2023-01-04T22:29:17.432Z,9.13
2023-01-04T22:31:44.101Z,9.12
2023-01-04T22:34:10.712Z,9.12
2023-01-04T22:36:37.325Z,9.10
2023-01-04T22:39:04.019Z,9.10
2023-01-04T22:41:30.733Z,9.12
2023-01-04T22:43:59.704Z,9.11
2023-01-04T22:46:27.818Z,9.10
2023-01-04T22:48:54.958Z,9.11
2023-01-04T22:51:23.403Z,9.13
2023-01-04T22:53:54.198Z,9.14
2023-01-04T22:56:22.459Z,9.15
2023-01-04T22:58:54.384Z,9.14
2023-01-04T23:01:24.058Z,9.15
2023-01-04T23:03:51.964Z,9.15
2023-01-04T23:06:19.353Z,9.17
2023-01-04T23:08:46.237Z,9.15
2023-01-04T23:11:18.106Z,9.17
2023-01-04T23:13:45.180Z,9.16
2023-01-04T23:16:14.784Z,9.16
2023-01-04T23:18:41.479Z,9.17
2023-01-04T23:21:08.792Z,9.19
2023-01-04T23:23:35.556Z,9.22
2023-01-04T23:26:14.211Z,9.24
2023-01-04T23:28:41.772Z,9.26
2023-01-04T23:31:11.224Z,9.25
2023-01-04T23:33:38.413Z,9.24
2023-01-04T23:36:20.538Z,9.27
2023-01-04T23:38:53.125Z,9.27
2023-01-04T23:41:19.716Z,9.29
2023-01-04T23:43:46.497Z,9.30
2023-01-04T23:46:17.835Z,9.30
2023-01-04T23:48:44.751Z,9.28
2023-01-04T23:51:15.129Z,9.29
2023-01-04T23:53:41.719Z,9.31
2023-01-04T23:56:14.455Z,9.35
2023-01-04T23:58:41.062Z,9.36
